sensor_id;sensor_type;location;lat;lon;timestamp;P1;durP1;ratioP1;P2;durP2;ratioP2
21657;SDS011;10990;48.174;9.782;2024-03-25T00:01:45;3.47;;;1.77;;
21657;SDS011;10990;48.174;9.782;2024-03-25T00:04:11;4.70;;;2.07;;
21657;SDS011;10990;48.174;9.782;2024-03-25T00:06:37;4.80;;;2.00;;
21657;SDS011;10990;48.174;9.782;2024-03-25T00:09:03;4.27;;;1.70;;
21657;SDS011;10990;48.174;9.782;2024-03-25T00:11:29;4.97;;;1.80;;
21657;SDS011;10990;48.174;9.782;2024-03-25T00:13:55;3.97;;;2.03;;
21657;SDS011;10990;48.174;9.782;2024-03-25T00:16:20;5.33;;;2.07;;
21657;SDS011;10990;48.174;9.782;2024-03-25T00:18:49;3.27;;;1.80;;
21657;SDS011;10990;48.174;9.782;2024-03-25T00:21:15;5.80;;;1.90;;
21657;SDS011;10990;48.174;9.782;2024-03-25T00:23:41;5.03;;;2.00;;
21657;SDS011;10990;48.174;9.782;2024-03-25T00:26:07;4.37;;;2.13;;
21657;SDS011;10990;48.174;9.782;2024-03-25T00:28:33;5.17;;;1.80;;
21657;SDS011;10990;48.174;9.782;2024-03-25T00:30:59;4.93;;;1.87;;
21657;SDS011;10990;48.174;9.782;2024-03-25T00:33:25;6.10;;;1.77;;
21657;SDS011;10990;48.174;9.782;2024-03-25T00:35:53;4.03;;;1.83;;
21657;SDS011;10990;48.174;9.782;2024-03-25T00:38:19;5.70;;;1.87;;
21657;SDS011;10990;48.174;9.782;2024-03-25T00:40:45;3.53;;;1.60;;
21657;SDS011;10990;48.174;9.782;2024-03-25T00:43:11;3.77;;;1.77;;
21657;SDS011;10990;48.174;9.782;2024-03-25T00:45:37;5.07;;;1.80;;
21657;SDS011;10990;48.174;9.782;2024-03-25T00:48:03;4.43;;;1.90;;
21657;SDS011;10990;48.174;9.782;2024-03-25T00:50:30;4.83;;;1.80;;
21657;SDS011;10990;48.174;9.782;2024-03-25T00:52:58;3.10;;;1.60;;
21657;SDS011;10990;48.174;9.782;2024-03-25T00:55:24;3.47;;;1.63;;
21657;SDS011;10990;48.174;9.782;2024-03-25T00:57:50;4.50;;;1.57;;
21657;SDS011;10990;48.174;9.782;2024-03-25T01:00:16;3.40;;;1.73;;
21657;SDS011;10990;48.174;9.782;2024-03-25T01:02:43;2.70;;;1.50;;
21657;SDS011;10990;48.174;9.782;2024-03-25T01:05:09;4.10;;;1.60;;
21657;SDS011;10990;48.174;9.782;2024-03-25T01:07:35;2.63;;;1.60;;
21657;SDS011;10990;48.174;9.782;2024-03-25T01:10:04;2.83;;;1.57;;
21657;SDS011;10990;48.174;9.782;2024-03-25T01:12:30;4.87;;;1.70;;
21657;SDS011;10990;48.174;9.782;2024-03-25T01:14:56;2.37;;;1.70;;
21657;SDS011;10990;48.174;9.782;2024-03-25T01:17:22;4.30;;;1.70;;
21657;SDS011;10990;48.174;9.782;2024-03-25T01:19:48;3.90;;;1.73;;
21657;SDS011;10990;48.174;9.782;2024-03-25T01:22:14;4.27;;;1.83;;
21657;SDS011;10990;48.174;9.782;2024-03-25T01:24:40;2.77;;;1.60;;
21657;SDS011;10990;48.174;9.782;2024-03-25T01:27:09;3.87;;;1.90;;
21657;SDS011;10990;48.174;9.782;2024-03-25T01:29:35;2.03;;;1.40;;
21657;SDS011;10990;48.174;9.782;2024-03-25T01:32:01;4.50;;;1.50;;
21657;SDS011;10990;48.174;9.782;2024-03-25T01:34:26;3.63;;;2.00;;
21657;SDS011;10990;48.174;9.782;2024-03-25T01:36:52;2.63;;;1.43;;
21657;SDS011;10990;48.174;9.782;2024-03-25T01:39:18;6.13;;;2.07;;
21657;SDS011;10990;48.174;9.782;2024-03-25T01:41:44;3.20;;;1.60;;
21657;SDS011;10990;48.174;9.782;2024-03-25T01:44:13;1.67;;;1.50;;
21657;SDS011;10990;48.174;9.782;2024-03-25T01:46:39;3.23;;;1.70;;
21657;SDS011;10990;48.174;9.782;2024-03-25T01:49:05;3.13;;;1.67;;
21657;SDS011;10990;48.174;9.782;2024-03-25T01:51:32;4.67;;;1.67;;
21657;SDS011;10990;48.174;9.782;2024-03-25T01:53:59;3.40;;;2.00;;
21657;SDS011;10990;48.174;9.782;2024-03-25T01:56:25;3.40;;;1.67;;
21657;SDS011;10990;48.174;9.782;2024-03-25T01:58:54;4.77;;;1.60;;
21657;SDS011;10990;48.174;9.782;2024-03-25T02:01:23;2.87;;;1.70;;
21657;SDS011;10990;48.174;9.782;2024-03-25T02:03:49;4.43;;;1.80;;
21657;SDS011;10990;48.174;9.782;2024-03-25T02:06:15;2.73;;;1.70;;
21657;SDS011;10990;48.174;9.782;2024-03-25T02:08:43;3.60;;;1.60;;
21657;SDS011;10990;48.174;9.782;2024-03-25T02:11:09;2.77;;;1.50;;
21657;SDS011;10990;48.174;9.782;2024-03-25T02:13:36;1.97;;;1.37;;
21657;SDS011;10990;48.174;9.782;2024-03-25T02:16:03;4.00;;;1.47;;
21657;SDS011;10990;48.174;9.782;2024-03-25T02:18:32;2.27;;;1.60;;
21657;SDS011;10990;48.174;9.782;2024-03-25T02:20:58;3.33;;;1.67;;
21657;SDS011;10990;48.174;9.782;2024-03-25T02:23:24;2.13;;;1.40;;
21657;SDS011;10990;48.174;9.782;2024-03-25T02:25:54;4.53;;;1.70;;
21657;SDS011;10990;48.174;9.782;2024-03-25T02:28:20;5.50;;;1.63;;
21657;SDS011;10990;48.174;9.782;2024-03-25T02:30:46;4.00;;;1.90;;
21657;SDS011;10990;48.174;9.782;2024-03-25T02:33:12;4.03;;;1.50;;
21657;SDS011;10990;48.174;9.782;2024-03-25T02:35:38;2.90;;;1.60;;
21657;SDS011;10990;48.174;9.782;2024-03-25T02:38:06;4.40;;;2.27;;
21657;SDS011;10990;48.174;9.782;2024-03-25T02:40:33;3.97;;;1.53;;
21657;SDS011;10990;48.174;9.782;2024-03-25T02:43:02;3.23;;;1.63;;
21657;SDS011;10990;48.174;9.782;2024-03-25T02:45:29;3.20;;;1.60;;
21657;SDS011;10990;48.174;9.782;2024-03-25T02:47:55;2.03;;;1.27;;
21657;SDS011;10990;48.174;9.782;2024-03-25T02:50:21;3.80;;;1.60;;
21657;SDS011;10990;48.174;9.782;2024-03-25T02:52:47;2.27;;;1.67;;
21657;SDS011;10990;48.174;9.782;2024-03-25T02:55:13;4.03;;;1.80;;
21657;SDS011;10990;48.174;9.782;2024-03-25T02:57:39;2.33;;;1.30;;
21657;SDS011;10990;48.174;9.782;2024-03-25T03:00:08;3.07;;;1.70;;
21657;SDS011;10990;48.174;9.782;2024-03-25T03:02:35;3.23;;;1.70;;
21657;SDS011;10990;48.174;9.782;2024-03-25T03:05:01;3.00;;;1.77;;
21657;SDS011;10990;48.174;9.782;2024-03-25T03:07:28;3.67;;;1.53;;
21657;SDS011;10990;48.174;9.782;2024-03-25T03:09:54;3.53;;;1.70;;
21657;SDS011;10990;48.174;9.782;2024-03-25T03:12:20;3.07;;;1.33;;
21657;SDS011;10990;48.174;9.782;2024-03-25T03:14:46;2.37;;;1.40;;
21657;SDS011;10990;48.174;9.782;2024-03-25T03:17:14;2.77;;;1.77;;
21657;SDS011;10990;48.174;9.782;2024-03-25T03:19:41;3.93;;;1.90;;
21657;SDS011;10990;48.174;9.782;2024-03-25T03:22:07;3.13;;;1.60;;
21657;SDS011;10990;48.174;9.782;2024-03-25T03:24:33;4.37;;;1.90;;
21657;SDS011;10990;48.174;9.782;2024-03-25T03:26:59;3.53;;;1.70;;
21657;SDS011;10990;48.174;9.782;2024-03-25T03:29:26;4.47;;;1.63;;
21657;SDS011;10990;48.174;9.782;2024-03-25T03:31:52;2.67;;;1.90;;
21657;SDS011;10990;48.174;9.782;2024-03-25T03:34:20;2.73;;;1.80;;
21657;SDS011;10990;48.174;9.782;2024-03-25T03:36:46;2.87;;;1.73;;
21657;SDS011;10990;48.174;9.782;2024-03-25T03:39:12;3.20;;;1.60;;
21657;SDS011;10990;48.174;9.782;2024-03-25T03:41:38;2.37;;;1.70;;
21657;SDS011;10990;48.174;9.782;2024-03-25T03:44:04;3.50;;;1.80;;
21657;SDS011;10990;48.174;9.782;2024-03-25T03:46:30;4.60;;;1.60;;
21657;SDS011;10990;48.174;9.782;2024-03-25T03:48:56;3.20;;;2.00;;
21657;SDS011;10990;48.174;9.782;2024-03-25T03:51:25;3.67;;;2.00;;
21657;SDS011;10990;48.174;9.782;2024-03-25T03:53:51;4.03;;;2.20;;
21657;SDS011;10990;48.174;9.782;2024-03-25T03:56:17;4.83;;;2.20;;
21657;SDS011;10990;48.174;9.782;2024-03-25T03:58:43;3.23;;;1.80;;
21657;SDS011;10990;48.174;9.782;2024-03-25T04:01:15;4.23;;;1.80;;
21657;SDS011;10990;48.174;9.782;2024-03-25T04:03:41;4.17;;;1.90;;
21657;SDS011;10990;48.174;9.782;2024-03-25T04:06:08;3.27;;;2.00;;
21657;SDS011;10990;48.174;9.782;2024-03-25T04:08:37;6.63;;;2.10;;
21657;SDS011;10990;48.174;9.782;2024-03-25T04:11:04;4.57;;;2.10;;
21657;SDS011;10990;48.174;9.782;2024-03-25T04:13:30;4.33;;;2.27;;
21657;SDS011;10990;48.174;9.782;2024-03-25T04:15:59;3.43;;;1.90;;
21657;SDS011;10990;48.174;9.782;2024-03-25T04:18:26;2.50;;;1.73;;
21657;SDS011;10990;48.174;9.782;2024-03-25T04:20:52;3.33;;;2.00;;
21657;SDS011;10990;48.174;9.782;2024-03-25T04:23:18;5.30;;;2.47;;
21657;SDS011;10990;48.174;9.782;2024-03-25T04:25:46;5.87;;;2.37;;
21657;SDS011;10990;48.174;9.782;2024-03-25T04:28:12;3.50;;;2.30;;
21657;SDS011;10990;48.174;9.782;2024-03-25T04:30:38;3.87;;;1.93;;
21657;SDS011;10990;48.174;9.782;2024-03-25T04:33:04;4.67;;;2.40;;
21657;SDS011;10990;48.174;9.782;2024-03-25T04:35:30;3.43;;;1.90;;
21657;SDS011;10990;48.174;9.782;2024-03-25T04:37:56;3.80;;;2.07;;
21657;SDS011;10990;48.174;9.782;2024-03-25T04:40:22;4.77;;;2.10;;
21657;SDS011;10990;48.174;9.782;2024-03-25T04:42:50;4.50;;;1.90;;
21657;SDS011;10990;48.174;9.782;2024-03-25T04:45:16;5.47;;;2.33;;
21657;SDS011;10990;48.174;9.782;2024-03-25T04:47:42;4.10;;;2.30;;
21657;SDS011;10990;48.174;9.782;2024-03-25T04:50:08;3.80;;;2.00;;
21657;SDS011;10990;48.174;9.782;2024-03-25T04:52:34;4.50;;;2.30;;
21657;SDS011;10990;48.174;9.782;2024-03-25T04:55:01;3.67;;;2.07;;
21657;SDS011;10990;48.174;9.782;2024-03-25T04:57:27;3.97;;;2.30;;
21657;SDS011;10990;48.174;9.782;2024-03-25T04:59:56;3.40;;;1.90;;
21657;SDS011;10990;48.174;9.782;2024-03-25T05:02:22;4.83;;;2.37;;
21657;SDS011;10990;48.174;9.782;2024-03-25T05:04:48;3.43;;;2.20;;
21657;SDS011;10990;48.174;9.782;2024-03-25T05:07:14;3.87;;;2.50;;
21657;SDS011;10990;48.174;9.782;2024-03-25T05:09:40;4.00;;;2.23;;
21657;SDS011;10990;48.174;9.782;2024-03-25T05:12:06;4.47;;;2.43;;
21657;SDS011;10990;48.174;9.782;2024-03-25T05:14:32;3.80;;;2.00;;
21657;SDS011;10990;48.174;9.782;2024-03-25T05:17:00;4.17;;;2.27;;
21657;SDS011;10990;48.174;9.782;2024-03-25T05:19:26;4.53;;;2.37;;
21657;SDS011;10990;48.174;9.782;2024-03-25T05:21:52;5.33;;;2.40;;
21657;SDS011;10990;48.174;9.782;2024-03-25T05:24:18;3.83;;;2.23;;
21657;SDS011;10990;48.174;9.782;2024-03-25T05:26:44;5.00;;;2.20;;
21657;SDS011;10990;48.174;9.782;2024-03-25T05:29:10;3.93;;;2.20;;
21657;SDS011;10990;48.174;9.782;2024-03-25T05:31:36;4.30;;;2.30;;
21657;SDS011;10990;48.174;9.782;2024-03-25T05:34:04;4.97;;;2.27;;
21657;SDS011;10990;48.174;9.782;2024-03-25T05:36:30;3.13;;;2.17;;
21657;SDS011;10990;48.174;9.782;2024-03-25T05:38:56;5.27;;;2.70;;
21657;SDS011;10990;48.174;9.782;2024-03-25T05:41:22;8.13;;;2.97;;
21657;SDS011;10990;48.174;9.782;2024-03-25T05:43:48;5.13;;;3.13;;
21657;SDS011;10990;48.174;9.782;2024-03-25T05:46:14;6.43;;;2.83;;
21657;SDS011;10990;48.174;9.782;2024-03-25T05:48:40;5.17;;;2.50;;
21657;SDS011;10990;48.174;9.782;2024-03-25T05:51:09;6.03;;;3.27;;
21657;SDS011;10990;48.174;9.782;2024-03-25T05:53:35;7.67;;;2.67;;
21657;SDS011;10990;48.174;9.782;2024-03-25T05:56:01;4.00;;;2.60;;
21657;SDS011;10990;48.174;9.782;2024-03-25T05:58:27;4.23;;;2.60;;
21657;SDS011;10990;48.174;9.782;2024-03-25T06:00:53;4.03;;;2.60;;
21657;SDS011;10990;48.174;9.782;2024-03-25T06:03:19;4.63;;;2.60;;
21657;SDS011;10990;48.174;9.782;2024-03-25T06:05:46;4.00;;;2.50;;
21657;SDS011;10990;48.174;9.782;2024-03-25T06:08:14;8.53;;;2.80;;
21657;SDS011;10990;48.174;9.782;2024-03-25T06:10:40;5.63;;;2.50;;
21657;SDS011;10990;48.174;9.782;2024-03-25T06:13:06;7.07;;;2.90;;
21657;SDS011;10990;48.174;9.782;2024-03-25T06:15:32;5.80;;;2.90;;
21657;SDS011;10990;48.174;9.782;2024-03-25T06:17:58;4.73;;;2.60;;
21657;SDS011;10990;48.174;9.782;2024-03-25T06:20:24;4.60;;;2.23;;
21657;SDS011;10990;48.174;9.782;2024-03-25T06:22:50;3.80;;;2.30;;
21657;SDS011;10990;48.174;9.782;2024-03-25T06:25:18;8.00;;;2.63;;
21657;SDS011;10990;48.174;9.782;2024-03-25T06:27:45;5.30;;;2.90;;
21657;SDS011;10990;48.174;9.782;2024-03-25T06:30:13;5.77;;;2.50;;
21657;SDS011;10990;48.174;9.782;2024-03-25T06:32:39;4.23;;;2.90;;
21657;SDS011;10990;48.174;9.782;2024-03-25T06:35:05;5.60;;;2.80;;
21657;SDS011;10990;48.174;9.782;2024-03-25T06:37:31;4.97;;;2.20;;
21657;SDS011;10990;48.174;9.782;2024-03-25T06:39:57;5.30;;;2.60;;
21657;SDS011;10990;48.174;9.782;2024-03-25T06:42:26;4.37;;;2.23;;
21657;SDS011;10990;48.174;9.782;2024-03-25T06:44:51;5.80;;;2.70;;
21657;SDS011;10990;48.174;9.782;2024-03-25T06:47:17;4.03;;;2.67;;
21657;SDS011;10990;48.174;9.782;2024-03-25T06:49:43;5.33;;;2.47;;
21657;SDS011;10990;48.174;9.782;2024-03-25T06:52:09;6.00;;;2.60;;
21657;SDS011;10990;48.174;9.782;2024-03-25T06:54:35;5.23;;;2.53;;
21657;SDS011;10990;48.174;9.782;2024-03-25T06:57:01;3.83;;;2.37;;
21657;SDS011;10990;48.174;9.782;2024-03-25T06:59:30;4.73;;;2.43;;
21657;SDS011;10990;48.174;9.782;2024-03-25T07:01:56;5.03;;;2.33;;
21657;SDS011;10990;48.174;9.782;2024-03-25T07:04:22;5.13;;;2.40;;
21657;SDS011;10990;48.174;9.782;2024-03-25T07:06:48;3.80;;;2.17;;
21657;SDS011;10990;48.174;9.782;2024-03-25T07:09:14;6.53;;;2.40;;
21657;SDS011;10990;48.174;9.782;2024-03-25T07:11:39;3.97;;;2.10;;
21657;SDS011;10990;48.174;9.782;2024-03-25T07:14:05;3.80;;;2.20;;
21657;SDS011;10990;48.174;9.782;2024-03-25T07:16:34;4.50;;;2.10;;
21657;SDS011;10990;48.174;9.782;2024-03-25T07:19:00;5.27;;;2.10;;
21657;SDS011;10990;48.174;9.782;2024-03-25T07:21:26;4.20;;;2.03;;
21657;SDS011;10990;48.174;9.782;2024-03-25T07:23:52;3.90;;;2.13;;
21657;SDS011;10990;48.174;9.782;2024-03-25T07:26:18;3.53;;;2.10;;
21657;SDS011;10990;48.174;9.782;2024-03-25T07:28:43;3.37;;;2.07;;
21657;SDS011;10990;48.174;9.782;2024-03-25T07:31:09;6.07;;;2.10;;
21657;SDS011;10990;48.174;9.782;2024-03-25T07:33:38;3.13;;;1.85;;
21657;SDS011;10990;48.174;9.782;2024-03-25T07:36:04;4.32;;;2.20;;
21657;SDS011;10990;48.174;9.782;2024-03-25T07:38:30;5.05;;;2.10;;
21657;SDS011;10990;48.174;9.782;2024-03-25T07:40:56;3.78;;;1.80;;
21657;SDS011;10990;48.174;9.782;2024-03-25T07:43:28;3.88;;;2.13;;
21657;SDS011;10990;48.174;9.782;2024-03-25T07:45:53;3.15;;;1.90;;
21657;SDS011;10990;48.174;9.782;2024-03-25T07:48:19;3.42;;;1.80;;
21657;SDS011;10990;48.174;9.782;2024-03-25T07:50:48;3.25;;;1.90;;
21657;SDS011;10990;48.174;9.782;2024-03-25T07:53:14;4.28;;;1.80;;
21657;SDS011;10990;48.174;9.782;2024-03-25T07:55:40;3.45;;;1.70;;
21657;SDS011;10990;48.174;9.782;2024-03-25T07:58:06;2.45;;;1.55;;
21657;SDS011;10990;48.174;9.782;2024-03-25T08:00:32;4.43;;;1.85;;
21657;SDS011;10990;48.174;9.782;2024-03-25T08:02:58;2.55;;;1.70;;
21657;SDS011;10990;48.174;9.782;2024-03-25T08:05:23;3.45;;;1.77;;
21657;SDS011;10990;48.174;9.782;2024-03-25T08:07:52;4.18;;;1.77;;
21657;SDS011;10990;48.174;9.782;2024-03-25T08:10:18;4.43;;;1.85;;
21657;SDS011;10990;48.174;9.782;2024-03-25T08:12:44;2.80;;;1.70;;
21657;SDS011;10990;48.174;9.782;2024-03-25T08:15:10;3.63;;;1.48;;
21657;SDS011;10990;48.174;9.782;2024-03-25T08:17:36;4.10;;;1.73;;
21657;SDS011;10990;48.174;9.782;2024-03-25T08:20:02;2.95;;;1.80;;
21657;SDS011;10990;48.174;9.782;2024-03-25T08:22:28;3.08;;;1.70;;
21657;SDS011;10990;48.174;9.782;2024-03-25T08:24:56;4.30;;;1.83;;
21657;SDS011;10990;48.174;9.782;2024-03-25T08:27:22;4.28;;;1.83;;
21657;SDS011;10990;48.174;9.782;2024-03-25T08:29:48;3.35;;;2.00;;
21657;SDS011;10990;48.174;9.782;2024-03-25T08:32:14;3.53;;;2.00;;
21657;SDS011;10990;48.174;9.782;2024-03-25T08:34:40;2.45;;;1.70;;
21657;SDS011;10990;48.174;9.782;2024-03-25T08:37:06;3.63;;;1.80;;
21657;SDS011;10990;48.174;9.782;2024-03-25T08:39:32;4.38;;;1.75;;
21657;SDS011;10990;48.174;9.782;2024-03-25T08:42:00;4.15;;;1.67;;
21657;SDS011;10990;48.174;9.782;2024-03-25T08:44:26;4.28;;;1.73;;
21657;SDS011;10990;48.174;9.782;2024-03-25T08:46:52;3.47;;;1.73;;
21657;SDS011;10990;48.174;9.782;2024-03-25T08:49:18;2.85;;;1.80;;
21657;SDS011;10990;48.174;9.782;2024-03-25T08:51:44;3.88;;;2.00;;
21657;SDS011;10990;48.174;9.782;2024-03-25T08:54:10;3.58;;;1.92;;
21657;SDS011;10990;48.174;9.782;2024-03-25T08:56:36;2.50;;;1.52;;
21657;SDS011;10990;48.174;9.782;2024-03-25T08:59:05;3.80;;;1.80;;
21657;SDS011;10990;48.174;9.782;2024-03-25T09:01:31;4.20;;;1.80;;
21657;SDS011;10990;48.174;9.782;2024-03-25T09:03:57;3.58;;;1.80;;
21657;SDS011;10990;48.174;9.782;2024-03-25T09:06:22;3.90;;;2.10;;
21657;SDS011;10990;48.174;9.782;2024-03-25T09:08:48;3.90;;;2.00;;
21657;SDS011;10990;48.174;9.782;2024-03-25T09:11:14;4.15;;;2.10;;
21657;SDS011;10990;48.174;9.782;2024-03-25T09:13:42;5.28;;;2.13;;
21657;SDS011;10990;48.174;9.782;2024-03-25T09:16:10;4.18;;;1.95;;
21657;SDS011;10990;48.174;9.782;2024-03-25T09:18:36;3.72;;;2.03;;
21657;SDS011;10990;48.174;9.782;2024-03-25T09:21:02;4.00;;;1.73;;
21657;SDS011;10990;48.174;9.782;2024-03-25T09:23:29;4.88;;;1.95;;
21657;SDS011;10990;48.174;9.782;2024-03-25T09:25:54;4.22;;;2.10;;
21657;SDS011;10990;48.174;9.782;2024-03-25T09:28:20;4.82;;;1.90;;
21657;SDS011;10990;48.174;9.782;2024-03-25T09:30:47;5.65;;;1.90;;
21657;SDS011;10990;48.174;9.782;2024-03-25T09:33:16;5.65;;;1.85;;
21657;SDS011;10990;48.174;9.782;2024-03-25T09:35:42;3.92;;;1.60;;
21657;SDS011;10990;48.174;9.782;2024-03-25T09:38:08;3.13;;;1.77;;
21657;SDS011;10990;48.174;9.782;2024-03-25T09:40:35;4.50;;;1.73;;
21657;SDS011;10990;48.174;9.782;2024-03-25T09:43:02;3.55;;;1.60;;
21657;SDS011;10990;48.174;9.782;2024-03-25T09:45:29;4.38;;;1.77;;
21657;SDS011;10990;48.174;9.782;2024-03-25T09:47:55;3.28;;;1.75;;
21657;SDS011;10990;48.174;9.782;2024-03-25T09:50:24;2.65;;;1.67;;
21657;SDS011;10990;48.174;9.782;2024-03-25T09:52:50;2.70;;;1.65;;
21657;SDS011;10990;48.174;9.782;2024-03-25T09:55:16;4.28;;;1.60;;
21657;SDS011;10990;48.174;9.782;2024-03-25T09:57:43;4.05;;;1.70;;
21657;SDS011;10990;48.174;9.782;2024-03-25T10:00:10;1.70;;;1.48;;
21657;SDS011;10990;48.174;9.782;2024-03-25T10:02:41;3.30;;;1.92;;
21657;SDS011;10990;48.174;9.782;2024-03-25T10:05:07;2.58;;;1.50;;
21657;SDS011;10990;48.174;9.782;2024-03-25T10:07:36;2.38;;;1.70;;
21657;SDS011;10990;48.174;9.782;2024-03-25T10:10:03;3.25;;;1.63;;
21657;SDS011;10990;48.174;9.782;2024-03-25T10:12:29;3.50;;;1.77;;
21657;SDS011;10990;48.174;9.782;2024-03-25T10:14:55;3.35;;;1.65;;
21657;SDS011;10990;48.174;9.782;2024-03-25T10:17:21;3.03;;;1.50;;
21657;SDS011;10990;48.174;9.782;2024-03-25T10:19:47;3.10;;;1.63;;
21657;SDS011;10990;48.174;9.782;2024-03-25T10:22:13;2.75;;;1.63;;
21657;SDS011;10990;48.174;9.782;2024-03-25T10:24:43;4.18;;;1.77;;
21657;SDS011;10990;48.174;9.782;2024-03-25T10:27:10;2.95;;;1.23;;
21657;SDS011;10990;48.174;9.782;2024-03-25T10:29:42;2.88;;;1.40;;
21657;SDS011;10990;48.174;9.782;2024-03-25T10:32:08;2.50;;;1.40;;
21657;SDS011;10990;48.174;9.782;2024-03-25T10:34:34;2.95;;;1.63;;
21657;SDS011;10990;48.174;9.782;2024-03-25T10:37:01;4.53;;;1.75;;
21657;SDS011;10990;48.174;9.782;2024-03-25T10:39:30;3.45;;;1.65;;
21657;SDS011;10990;48.174;9.782;2024-03-25T10:41:59;3.33;;;1.50;;
21657;SDS011;10990;48.174;9.782;2024-03-25T10:44:27;4.07;;;1.40;;
21657;SDS011;10990;48.174;9.782;2024-03-25T10:46:56;3.33;;;1.48;;
21657;SDS011;10990;48.174;9.782;2024-03-25T10:49:27;3.63;;;1.83;;
21657;SDS011;10990;48.174;9.782;2024-03-25T10:51:59;3.55;;;1.60;;
21657;SDS011;10990;48.174;9.782;2024-03-25T10:54:28;5.55;;;1.80;;
21657;SDS011;10990;48.174;9.782;2024-03-25T10:56:59;4.60;;;1.60;;
21657;SDS011;10990;48.174;9.782;2024-03-25T10:59:28;7.05;;;2.33;;
21657;SDS011;10990;48.174;9.782;2024-03-25T11:01:55;4.10;;;1.52;;
21657;SDS011;10990;48.174;9.782;2024-03-25T11:04:21;2.78;;;1.30;;
21657;SDS011;10990;48.174;9.782;2024-03-25T11:06:48;2.90;;;1.55;;
21657;SDS011;10990;48.174;9.782;2024-03-25T11:09:23;3.60;;;1.40;;
21657;SDS011;10990;48.174;9.782;2024-03-25T11:11:50;2.92;;;1.40;;
21657;SDS011;10990;48.174;9.782;2024-03-25T11:14:18;4.32;;;1.42;;
21657;SDS011;10990;48.174;9.782;2024-03-25T11:16:50;4.22;;;1.30;;
21657;SDS011;10990;48.174;9.782;2024-03-25T11:19:17;1.95;;;1.33;;
21657;SDS011;10990;48.174;9.782;2024-03-25T11:21:43;2.55;;;1.23;;
21657;SDS011;10990;48.174;9.782;2024-03-25T11:24:09;2.90;;;1.33;;
21657;SDS011;10990;48.174;9.782;2024-03-25T11:26:40;1.70;;;1.17;;
21657;SDS011;10990;48.174;9.782;2024-03-25T11:31:34;3.50;;;1.40;;
21657;SDS011;10990;48.174;9.782;2024-03-25T11:34:03;3.35;;;1.25;;
21657;SDS011;10990;48.174;9.782;2024-03-25T11:36:30;2.17;;;1.27;;
21657;SDS011;10990;48.174;9.782;2024-03-25T11:39:00;2.80;;;1.48;;
21657;SDS011;10990;48.174;9.782;2024-03-25T11:41:26;2.88;;;1.50;;
21657;SDS011;10990;48.174;9.782;2024-03-25T11:43:52;3.90;;;1.35;;
21657;SDS011;10990;48.174;9.782;2024-03-25T11:46:18;1.88;;;1.23;;
21657;SDS011;10990;48.174;9.782;2024-03-25T11:48:47;4.68;;;1.60;;
21657;SDS011;10990;48.174;9.782;2024-03-25T11:51:14;4.72;;;2.13;;
21657;SDS011;10990;48.174;9.782;2024-03-25T11:53:42;4.03;;;1.88;;
21657;SDS011;10990;48.174;9.782;2024-03-25T11:56:08;3.50;;;1.70;;
21657;SDS011;10990;48.174;9.782;2024-03-25T11:58:34;1.92;;;1.10;;
21657;SDS011;10990;48.174;9.782;2024-03-25T12:01:00;3.67;;;1.23;;
21657;SDS011;10990;48.174;9.782;2024-03-25T12:03:26;2.13;;;1.20;;
21657;SDS011;10990;48.174;9.782;2024-03-25T12:05:54;3.30;;;1.00;;
21657;SDS011;10990;48.174;9.782;2024-03-25T12:08:21;1.80;;;1.13;;
21657;SDS011;10990;48.174;9.782;2024-03-25T12:10:48;3.08;;;1.40;;
21657;SDS011;10990;48.174;9.782;2024-03-25T12:13:14;1.50;;;1.10;;
21657;SDS011;10990;48.174;9.782;2024-03-25T12:15:40;2.60;;;1.25;;
21657;SDS011;10990;48.174;9.782;2024-03-25T12:18:06;3.95;;;1.23;;
21657;SDS011;10990;48.174;9.782;2024-03-25T12:20:32;2.20;;;1.08;;
21657;SDS011;10990;48.174;9.782;2024-03-25T12:23:00;2.08;;;1.20;;
21657;SDS011;10990;48.174;9.782;2024-03-25T12:25:27;1.50;;;1.20;;
21657;SDS011;10990;48.174;9.782;2024-03-25T12:27:53;1.75;;;0.90;;
21657;SDS011;10990;48.174;9.782;2024-03-25T12:30:19;1.77;;;0.90;;
21657;SDS011;10990;48.174;9.782;2024-03-25T12:32:45;3.60;;;1.20;;
21657;SDS011;10990;48.174;9.782;2024-03-25T12:35:11;1.60;;;1.00;;
21657;SDS011;10990;48.174;9.782;2024-03-25T12:37:39;3.17;;;1.13;;
21657;SDS011;10990;48.174;9.782;2024-03-25T12:40:09;1.20;;;0.90;;
21657;SDS011;10990;48.174;9.782;2024-03-25T12:42:36;1.20;;;0.93;;
21657;SDS011;10990;48.174;9.782;2024-03-25T12:45:03;2.97;;;1.20;;
21657;SDS011;10990;48.174;9.782;2024-03-25T12:47:29;1.33;;;1.20;;
21657;SDS011;10990;48.174;9.782;2024-03-25T12:49:55;3.40;;;1.05;;
21657;SDS011;10990;48.174;9.782;2024-03-25T12:52:21;1.23;;;0.90;;
21657;SDS011;10990;48.174;9.782;2024-03-25T12:54:47;2.53;;;1.23;;
21657;SDS011;10990;48.174;9.782;2024-03-25T12:57:16;2.47;;;1.42;;
21657;SDS011;10990;48.174;9.782;2024-03-25T12:59:41;1.98;;;1.20;;
21657;SDS011;10990;48.174;9.782;2024-03-25T13:02:09;1.20;;;0.80;;
21657;SDS011;10990;48.174;9.782;2024-03-25T13:04:37;0.98;;;0.80;;
21657;SDS011;10990;48.174;9.782;2024-03-25T13:07:04;2.95;;;1.02;;
21657;SDS011;10990;48.174;9.782;2024-03-25T13:09:29;0.85;;;0.75;;
21657;SDS011;10990;48.174;9.782;2024-03-25T13:11:55;4.93;;;1.58;;
21657;SDS011;10990;48.174;9.782;2024-03-25T13:14:24;2.25;;;0.90;;
21657;SDS011;10990;48.174;9.782;2024-03-25T13:16:50;2.90;;;1.20;;
21657;SDS011;10990;48.174;9.782;2024-03-25T13:19:16;4.30;;;1.15;;
21657;SDS011;10990;48.174;9.782;2024-03-25T13:21:42;1.48;;;0.85;;
21657;SDS011;10990;48.174;9.782;2024-03-25T13:24:08;2.05;;;0.98;;
21657;SDS011;10990;48.174;9.782;2024-03-25T13:26:34;3.42;;;0.90;;
21657;SDS011;10990;48.174;9.782;2024-03-25T13:29:00;1.88;;;1.10;;
21657;SDS011;10990;48.174;9.782;2024-03-25T13:31:29;2.42;;;0.90;;
21657;SDS011;10990;48.174;9.782;2024-03-25T13:33:55;3.67;;;1.20;;
21657;SDS011;10990;48.174;9.782;2024-03-25T13:36:21;2.63;;;1.10;;
21657;SDS011;10990;48.174;9.782;2024-03-25T13:38:47;1.63;;;1.10;;
21657;SDS011;10990;48.174;9.782;2024-03-25T13:41:12;2.35;;;1.00;;
21657;SDS011;10990;48.174;9.782;2024-03-25T13:43:41;1.10;;;0.90;;
21657;SDS011;10990;48.174;9.782;2024-03-25T13:46:08;2.30;;;0.90;;
21657;SDS011;10990;48.174;9.782;2024-03-25T13:48:37;0.98;;;0.80;;
21657;SDS011;10990;48.174;9.782;2024-03-25T13:51:03;2.58;;;0.90;;
21657;SDS011;10990;48.174;9.782;2024-03-25T13:53:29;2.60;;;0.90;;
21657;SDS011;10990;48.174;9.782;2024-03-25T13:55:55;1.80;;;1.00;;
21657;SDS011;10990;48.174;9.782;2024-03-25T13:58:21;2.53;;;0.90;;
21657;SDS011;10990;48.174;9.782;2024-03-25T14:00:47;1.38;;;1.00;;
21657;SDS011;10990;48.174;9.782;2024-03-25T14:03:13;1.88;;;1.40;;
21657;SDS011;10990;48.174;9.782;2024-03-25T14:05:42;1.65;;;1.20;;
21657;SDS011;10990;48.174;9.782;2024-03-25T14:08:08;0.93;;;0.82;;
21657;SDS011;10990;48.174;9.782;2024-03-25T14:10:34;2.33;;;0.98;;
21657;SDS011;10990;48.174;9.782;2024-03-25T14:13:00;2.25;;;1.00;;
21657;SDS011;10990;48.174;9.782;2024-03-25T14:15:26;1.63;;;1.00;;
21657;SDS011;10990;48.174;9.782;2024-03-25T14:17:52;2.38;;;0.93;;
21657;SDS011;10990;48.174;9.782;2024-03-25T14:20:18;3.08;;;1.13;;
21657;SDS011;10990;48.174;9.782;2024-03-25T14:22:46;1.65;;;1.00;;
21657;SDS011;10990;48.174;9.782;2024-03-25T14:25:12;2.90;;;1.30;;
21657;SDS011;10990;48.174;9.782;2024-03-25T14:27:38;1.90;;;1.02;;
21657;SDS011;10990;48.174;9.782;2024-03-25T14:30:04;2.92;;;1.30;;
21657;SDS011;10990;48.174;9.782;2024-03-25T14:32:31;3.15;;;1.17;;
21657;SDS011;10990;48.174;9.782;2024-03-25T14:34:57;3.42;;;1.20;;
21657;SDS011;10990;48.174;9.782;2024-03-25T14:37:23;1.60;;;1.00;;
21657;SDS011;10990;48.174;9.782;2024-03-25T14:39:52;2.38;;;1.30;;
21657;SDS011;10990;48.174;9.782;2024-03-25T14:42:17;3.70;;;1.30;;
21657;SDS011;10990;48.174;9.782;2024-03-25T14:44:43;2.53;;;1.30;;
21657;SDS011;10990;48.174;9.782;2024-03-25T14:47:09;3.00;;;1.23;;